Time;durP1;ratioP1;P1;durP2;ratioP2;P2;SDS_P1;SDS_P2;PMS_P1;PMS_P2;Temp;Humidity;BMP_temperature;BMP_pressure;BME280_temperature;BME280_humidity;BME280_pressure;Samples;Min_cycle;Max_cycle;Signal;HPM_P1;HPM_P2
2021/12/10 00:00:01;;;;;;;43;70.5;;;;;;;-0.2;79.5;97460;;;;
2021/12/10 00:11:01;;;;;;;47.9;71.7;;;;;;;-0.3;80;97460;;;;
2021/12/10 00:22:01;;;;;;;47.9;71.7;;;;;;;-0.3;79.9;97450;;;;
2021/12/10 00:33:09;;;;;;;47.9;71.7;;;;;;;-0.3;80.5;97440;;;;
2021/12/10 00:43:01;;;;;;;45.6;66.5;;;;;;;-0.2;80.2;97440;;;;
2021/12/10 00:53:01;;;;;;;45.6;66.5;;;;;;;-0.3;79.9;97410;;;;
2021/12/10 01:03:01;;;;;;;45.6;66.5;;;;;;;-0.2;79.8;97410;;;;
2021/12/10 01:14:09;;;;;;;44;63.8;;;;;;;-0.2;79.8;97440;;;;
2021/12/10 01:25:11;;;;;;;44;63.8;;;;;;;-0.1;79.4;97420;;;;
2021/12/10 01:35:01;;;;;;;44;63.8;;;;;;;-0.1;79.8;97430;;;;
2021/12/10 01:45:01;;;;;;;46;65.1;;;;;;;0;78.8;97430;;;;
2021/12/10 01:56:01;;;;;;;46;65.1;;;;;;;0;79.2;97430;;;;
2021/12/10 02:06:01;;;;;;;46;65.1;;;;;;;0;79.3;97440;;;;
2021/12/10 02:16:01;;;;;;;48.7;69.9;;;;;;;0;79.2;97430;;;;
2021/12/10 02:26:01;;;;;;;48.7;69.9;;;;;;;0.1;79.4;97410;;;;
2021/12/10 02:36:01;;;;;;;48.7;69.9;;;;;;;0.1;79.2;97400;;;;
2021/12/10 02:47:01;;;;;;;46.6;65;;;;;;;-0.1;79.3;97390;;;;
2021/12/10 02:58:04;;;;;;;46.6;65;;;;;;;-0.1;79.4;97390;;;;
2021/12/10 03:08:01;;;;;;;46.6;65;;;;;;;0;79.6;97390;;;;
2021/12/10 03:18:01;;;;;;;40;59.7;;;;;;;-0.1;79.9;97380;;;;
2021/12/10 03:28:01;;;;;;;40;59.7;;;;;;;0;80.1;97400;;;;
2021/12/10 03:38:01;;;;;;;40;59.7;;;;;;;0;79.8;97400;;;;
2021/12/10 03:49:03;;;;;;;47.4;71.7;;;;;;;-0.1;79.6;97410;;;;
2021/12/10 04:00:01;;;;;;;47.4;71.7;;;;;;;0;79.5;97410;;;;
2021/12/10 04:11:01;;;;;;;50.1;73.9;;;;;;;-0.1;79.8;97420;;;;
2021/12/10 04:22:01;;;;;;;50.1;73.9;;;;;;;0;79.5;97410;;;;
2021/12/10 04:32:01;;;;;;;50.1;73.9;;;;;;;0.1;79.3;97410;;;;
2021/12/10 04:43:01;;;;;;;48.8;62.7;;;;;;;-0.1;79.5;97420;;;;
2021/12/10 04:53:01;;;;;;;48.8;62.7;;;;;;;0;79.6;97430;;;;
2021/12/10 05:04:01;;;;;;;48.8;62.7;;;;;;;0.1;79.7;97440;;;;
2021/12/10 05:14:01;;;;;;;54.1;77.7;;;;;;;0.1;79.7;97440;;;;
2021/12/10 05:25:01;;;;;;;54.1;77.7;;;;;;;0.2;79.2;97430;;;;
2021/12/10 05:35:01;;;;;;;54.1;77.7;;;;;;;-0.1;79.7;97420;;;;
2021/12/10 05:45:01;;;;;;;51.2;71.2;;;;;;;0;78.9;97410;;;;
2021/12/10 05:56:01;;;;;;;51.2;71.2;;;;;;;-0.1;79.7;97410;;;;
2021/12/10 06:06:01;;;;;;;51.2;71.2;;;;;;;0;80.1;97410;;;;
2021/12/10 06:16:01;;;;;;;65.6;96.2;;;;;;;0;80.2;97430;;;;
2021/12/10 06:26:03;;;;;;;65.6;96.2;;;;;;;0;80.4;97440;;;;
2021/12/10 06:37:01;;;;;;;65.6;96.2;;;;;;;0.3;80;97440;;;;
2021/12/10 06:48:01;;;;;;;65.4;94.8;;;;;;;0.4;79.5;97440;;;;
2021/12/10 06:59:01;;;;;;;65.4;94.8;;;;;;;0.4;79.5;97430;;;;
2021/12/10 07:09:01;;;;;;;65.4;94.8;;;;;;;0.7;79.3;97430;;;;
2021/12/10 07:20:01;;;;;;;68.5;84.7;;;;;;;0.8;78.4;97440;;;;
2021/12/10 07:30:01;;;;;;;68.5;84.7;;;;;;;0.8;77.8;97430;;;;
2021/12/10 07:41:01;;;;;;;67.6;83.1;;;;;;;0.5;77.5;97450;;;;
2021/12/10 07:52:01;;;;;;;67.6;83.1;;;;;;;0.7;78.1;97470;;;;
2021/12/10 08:02:01;;;;;;;67.6;83.1;;;;;;;1;78;97470;;;;
2021/12/10 08:12:01;;;;;;;64.6;83.2;;;;;;;1.5;78;97480;;;;
2021/12/10 08:23:01;;;;;;;64.6;83.2;;;;;;;1.8;76.4;97480;;;;
2021/12/10 08:34:01;;;;;;;64.6;83.2;;;;;;;1.9;75.9;97490;;;;
2021/12/10 08:44:01;;;;;;;87.7;105.8;;;;;;;2;76.1;97500;;;;
2021/12/10 08:55:02;;;;;;;87.7;105.8;;;;;;;2.5;74.5;97500;;;;
2021/12/10 09:06:01;;;;;;;87.7;105.8;;;;;;;2.7;73.8;97490;;;;
2021/12/10 09:16:01;;;;;;;94.9;119.2;;;;;;;3;72.8;97480;;;;
2021/12/10 09:27:01;;;;;;;94.9;119.2;;;;;;;3.2;72.8;97470;;;;
2021/12/10 09:37:01;;;;;;;94.9;119.2;;;;;;;3.4;71.9;97470;;;;
2021/12/10 09:47:01;;;;;;;108.4;132.5;;;;;;;3.2;71.4;97450;;;;
2021/12/10 09:58:01;;;;;;;108.4;132.5;;;;;;;2.3;73.7;97450;;;;
2021/12/10 10:08:01;;;;;;;108.4;132.5;;;;;;;2.2;74.8;97440;;;;
2021/12/10 10:19:01;;;;;;;93.5;110.9;;;;;;;2.7;73.7;97440;;;;
2021/12/10 10:29:01;;;;;;;93.5;110.9;;;;;;;3.1;73.5;97440;;;;
2021/12/10 10:40:01;;;;;;;92.5;112.7;;;;;;;3.7;73.5;97420;;;;
2021/12/10 10:51:01;;;;;;;92.5;112.7;;;;;;;4.3;71.6;97430;;;;
2021/12/10 11:02:04;;;;;;;92.5;112.7;;;;;;;4.8;70.4;97430;;;;
2021/12/10 11:13:01;;;;;;;60.6;72.3;;;;;;;5.2;68.6;97420;;;;
2021/12/10 11:24:01;;;;;;;60.6;72.3;;;;;;;4.9;68.7;97440;;;;
2021/12/10 11:34:01;;;;;;;60.6;72.3;;;;;;;5.1;68;97430;;;;
2021/12/10 11:45:16;;;;;;;49.9;61.5;;;;;;;4.8;68.1;97430;;;;
2021/12/10 11:56:01;;;;;;;49.9;61.5;;;;;;;4.8;68.4;97430;;;;
2021/12/10 12:07:01;;;;;;;49.9;61.5;;;;;;;4.6;68.7;97430;;;;
2021/12/10 12:17:04;;;;;;;48.7;58.8;;;;;;;4.8;68.2;97410;;;;
2021/12/10 12:27:01;;;;;;;48.7;58.8;;;;;;;4.8;68.2;97400;;;;
2021/12/10 12:37:01;;;;;;;48.7;58.8;;;;;;;4.2;69.7;97410;;;;
2021/12/10 12:48:01;;;;;;;35.4;43.6;;;;;;;4;71.6;97420;;;;
2021/12/10 12:59:01;;;;;;;35.4;43.6;;;;;;;3.8;72.5;97400;;;;
2021/12/10 13:09:01;;;;;;;63;76.8;;;;;;;3.8;72.9;97400;;;;
2021/12/10 13:20:03;;;;;;;63;76.8;;;;;;;3.6;73.1;97400;;;;
2021/12/10 13:31:01;;;;;;;63;76.8;;;;;;;3.8;72.7;97410;;;;
2021/12/10 13:41:01;;;;;;;60.5;74;;;;;;;3.8;72.9;97420;;;;
2021/12/10 13:51:01;;;;;;;60.5;74;;;;;;;3.7;73.4;97410;;;;
2021/12/10 14:01:02;;;;;;;60.5;74;;;;;;;3.4;74.9;97410;;;;
2021/12/10 14:11:10;;;;;;;75.8;97.4;;;;;;;3.1;75.7;97400;;;;
2021/12/10 14:22:01;;;;;;;75.8;97.4;;;;;;;2.9;76.5;97400;;;;
2021/12/10 14:33:01;;;;;;;75.8;97.4;;;;;;;2.6;77.7;97400;;;;
2021/12/10 14:43:01;;;;;;;82.7;103.3;;;;;;;2.3;78.4;97400;;;;
2021/12/10 14:53:01;;;;;;;82.7;103.3;;;;;;;2;78.9;97400;;;;
2021/12/10 15:03:01;;;;;;;82.7;103.3;;;;;;;1.8;78.6;97400;;;;
2021/12/10 15:14:01;;;;;;;72.9;89.9;;;;;;;1.4;80;97410;;;;
2021/12/10 15:25:01;;;;;;;72.9;89.9;;;;;;;1.1;81.1;97410;;;;
2021/12/10 15:35:01;;;;;;;72.9;89.9;;;;;;;0.8;81.8;97410;;;;
2021/12/10 15:45:02;;;;;;;66.1;89.8;;;;;;;0.6;82.4;97400;;;;
2021/12/10 15:56:01;;;;;;;66.1;89.8;;;;;;;0.4;82.7;97400;;;;
2021/12/10 16:06:02;;;;;;;66.1;89.8;;;;;;;0.2;83.5;97400;;;;
2021/12/10 16:17:01;;;;;;;62;89.8;;;;;;;0.1;83.9;97400;;;;
2021/12/10 16:28:01;;;;;;;62;89.8;;;;;;;0;84.9;97400;;;;
2021/12/10 16:38:02;;;;;;;51.8;82.1;;;;;;;-0.1;85.4;97400;;;;
2021/12/10 16:49:02;;;;;;;51.8;82.1;;;;;;;0;85.5;97410;;;;
2021/12/10 17:00:02;;;;;;;51.8;82.1;;;;;;;0;85.8;97410;;;;
2021/12/10 17:11:01;;;;;;;45.8;69.1;;;;;;;0.1;85.5;97420;;;;
2021/12/10 17:21:01;;;;;;;45.8;69.1;;;;;;;0.1;85.6;97410;;;;
2021/12/10 17:32:02;;;;;;;45.8;69.1;;;;;;;0.1;86;97420;;;;
2021/12/10 17:43:02;;;;;;;49.6;63.7;;;;;;;0.1;85.4;97430;;;;
2021/12/10 17:54:02;;;;;;;49.6;63.7;;;;;;;0.2;85.1;97430;;;;
2021/12/10 18:04:02;;;;;;;49.6;63.7;;;;;;;0.2;85.1;97420;;;;
2021/12/10 18:15:02;;;;;;;43.1;57.7;;;;;;;0.4;84.8;97420;;;;
2021/12/10 18:25:02;;;;;;;43.1;57.7;;;;;;;0.5;84.3;97430;;;;
2021/12/10 18:36:06;;;;;;;43.1;57.7;;;;;;;0.3;84.4;97440;;;;
2021/12/10 18:46:02;;;;;;;44.5;60.7;;;;;;;0.3;84.4;97450;;;;
2021/12/10 18:56:02;;;;;;;44.5;60.7;;;;;;;0.4;84.7;97450;;;;
2021/12/10 19:07:02;;;;;;;44.5;60.7;;;;;;;0.3;84.3;97440;;;;
2021/12/10 19:18:02;;;;;;;46.6;62.8;;;;;;;0.3;84.2;97450;;;;
2021/12/10 19:28:02;;;;;;;46.6;62.8;;;;;;;0.3;84.3;97450;;;;
2021/12/10 19:39:02;;;;;;;43;63.4;;;;;;;0.5;84.4;97480;;;;
2021/12/10 19:49:03;;;;;;;43;63.4;;;;;;;0.4;84.3;97490;;;;
2021/12/10 19:59:02;;;;;;;43;63.4;;;;;;;0.3;84.2;97490;;;;
2021/12/10 20:09:02;;;;;;;43.8;62.8;;;;;;;0.4;84.5;97480;;;;
2021/12/10 20:20:02;;;;;;;43.8;62.8;;;;;;;0.7;84.1;97500;;;;
2021/12/10 20:30:02;;;;;;;43.8;62.8;;;;;;;0.7;83.5;97510;;;;
2021/12/10 20:40:02;;;;;;;43.2;59;;;;;;;0.7;83.7;97520;;;;
2021/12/10 20:51:02;;;;;;;43.2;59;;;;;;;0.8;83.3;97530;;;;
2021/12/10 21:01:02;;;;;;;43.2;59;;;;;;;0.6;82.9;97530;;;;
2021/12/10 21:11:02;;;;;;;46.5;65.8;;;;;;;0.8;83.1;97540;;;;
2021/12/10 21:22:02;;;;;;;46.5;65.8;;;;;;;0.7;82.7;97550;;;;
2021/12/10 21:32:02;;;;;;;46.5;65.8;;;;;;;0.7;83.2;97550;;;;
2021/12/10 21:43:02;;;;;;;45.5;64.1;;;;;;;0.9;82.7;97550;;;;
2021/12/10 21:53:02;;;;;;;45.5;64.1;;;;;;;0.8;82.5;97560;;;;
2021/12/10 22:04:02;;;;;;;45.5;64.1;;;;;;;0.7;82.6;97570;;;;
2021/12/10 22:14:02;;;;;;;45.4;65.6;;;;;;;0.6;82.9;97570;;;;
2021/12/10 22:25:02;;;;;;;45.4;65.6;;;;;;;0.6;82.8;97570;;;;
2021/12/10 22:36:04;;;;;;;45.4;65.6;;;;;;;0.7;82.7;97570;;;;
2021/12/10 22:47:02;;;;;;;43.4;58.7;;;;;;;0.6;82.5;97560;;;;
2021/12/10 22:57:02;;;;;;;43.4;58.7;;;;;;;0.5;82.9;97580;;;;
2021/12/10 23:07:09;;;;;;;48.1;62.4;;;;;;;0.6;82.6;97580;;;;
2021/12/10 23:17:02;;;;;;;48.1;62.4;;;;;;;0.7;82.1;97580;;;;
2021/12/10 23:28:02;;;;;;;48.1;62.4;;;;;;;0.6;82.1;97590;;;;
2021/12/10 23:38:02;;;;;;;47;68.1;;;;;;;0.4;82.9;97600;;;;
2021/12/10 23:49:03;;;;;;;47;68.1;;;;;;;0.5;82.8;97620;;;;
2021/12/10 23:59:02;;;;;;;47;68.1;;;;;;;0.3;82.9;97620;;;;
